createdAt,value
2023-04-16T00:00:04.487Z,73.32
2023-04-16T00:01:04.499Z,72.46
2023-04-16T00:02:04.619Z,71.85
2023-04-16T00:03:04.737Z,72.04
2023-04-16T00:04:04.678Z,73.86
2023-04-16T00:05:04.850Z,71.25
2023-04-16T00:06:04.637Z,72.83
2023-04-16T00:07:04.641Z,73.76
2023-04-16T00:08:04.699Z,71.18
2023-04-16T00:09:04.682Z,73.78
2023-04-16T00:10:04.883Z,72.71
2023-04-16T00:11:04.769Z,71.24
2023-04-16T00:12:04.749Z,72.25
2023-04-16T00:13:04.837Z,72.84
2023-04-16T00:14:04.905Z,73.62
2023-04-16T00:15:04.856Z,72.47
2023-04-16T00:16:04.895Z,72.76
2023-04-16T00:17:05.042Z,71.26
2023-04-16T00:18:04.944Z,71.31
2023-04-16T00:19:04.986Z,70.99
2023-04-16T00:20:05.000Z,71.15
2023-04-16T00:21:05.040Z,72.29
2023-04-16T00:22:05.076Z,73.61
2023-04-16T00:23:05.117Z,71.67
2023-04-16T00:24:05.192Z,73.09
2023-04-16T00:25:05.151Z,71.86
2023-04-16T00:26:05.196Z,72.38
2023-04-16T00:27:05.178Z,72.31
2023-04-16T00:28:05.308Z,71.84
2023-04-16T00:29:05.293Z,71.06
2023-04-16T00:30:05.257Z,71.76
2023-04-16T00:31:05.342Z,72.92
2023-04-16T00:32:05.343Z,71.45
2023-04-16T00:33:05.357Z,73.05
2023-04-16T00:34:05.383Z,70.57
2023-04-16T00:35:05.395Z,73.74
2023-04-16T00:36:05.448Z,72.97
2023-04-16T00:37:05.483Z,72.11
2023-04-16T00:38:05.522Z,72.51
2023-04-16T00:39:05.556Z,72.73
2023-04-16T00:40:05.578Z,72.42
2023-04-16T00:41:05.598Z,73.08
2023-04-16T00:42:05.643Z,72.42
2023-04-16T00:43:05.665Z,73.93
2023-04-16T00:44:05.697Z,71.01
2023-04-16T00:45:05.718Z,72.91
2023-04-16T00:46:05.812Z,71.52
2023-04-16T00:47:05.756Z,74.25
2023-04-16T00:48:05.854Z,70.94
2023-04-16T00:49:05.833Z,74.00
2023-04-16T00:50:05.984Z,73.06
2023-04-16T00:51:05.879Z,73.44
2023-04-16T00:52:05.926Z,74.90
2023-04-16T00:53:05.940Z,74.28
2023-04-16T00:54:05.988Z,71.97
2023-04-16T00:55:06.041Z,74.11
2023-04-16T00:56:06.117Z,75.31
2023-04-16T00:57:06.321Z,71.85
2023-04-16T00:58:06.097Z,73.80
2023-04-16T00:59:06.160Z,73.09
2023-04-16T01:00:06.173Z,70.85
2023-04-16T01:01:06.283Z,71.95
2023-04-16T01:02:06.385Z,74.03
2023-04-16T01:03:06.438Z,72.73
2023-04-16T01:04:06.404Z,72.08
2023-04-16T01:05:06.328Z,71.69
2023-04-16T01:06:06.430Z,71.70
2023-04-16T01:07:06.502Z,71.86
2023-04-16T01:08:06.403Z,70.93
2023-04-16T01:09:06.417Z,72.92
2023-04-16T01:10:06.500Z,73.71
2023-04-16T01:11:06.511Z,72.32
2023-04-16T01:12:06.574Z,74.47
2023-04-16T01:13:06.541Z,71.74
2023-04-16T01:14:06.575Z,72.99
2023-04-16T01:15:06.624Z,74.06
2023-04-16T01:16:06.715Z,73.02
2023-04-16T01:17:06.739Z,71.07
2023-04-16T01:18:06.718Z,72.08
2023-04-16T01:19:06.715Z,73.58
2023-04-16T01:20:06.732Z,71.55
2023-04-16T01:21:06.770Z,73.24
2023-04-16T01:22:06.822Z,71.55
2023-04-16T01:23:06.802Z,71.97
2023-04-16T01:24:06.825Z,73.19
2023-04-16T01:25:06.900Z,72.80
2023-04-16T01:26:06.879Z,70.93
2023-04-16T01:27:06.919Z,72.31
2023-04-16T01:28:06.911Z,71.62
2023-04-16T01:29:07.136Z,72.94
2023-04-16T01:30:07.007Z,72.14
2023-04-16T01:31:07.064Z,72.20
2023-04-16T01:32:07.080Z,71.82
2023-04-16T01:33:07.118Z,72.10
2023-04-16T01:34:07.177Z,71.82
2023-04-16T01:35:07.148Z,71.44
2023-04-16T01:36:07.260Z,72.88
2023-04-16T01:37:07.256Z,71.43
2023-04-16T01:38:07.265Z,73.09
2023-04-16T01:39:07.564Z,72.59
2023-04-16T01:40:07.332Z,68.03
2023-04-16T01:41:07.360Z,72.79
2023-04-16T01:42:07.434Z,71.51
2023-04-16T01:43:07.420Z,71.08
2023-04-16T01:44:07.471Z,71.66
2023-04-16T01:45:07.472Z,70.16
2023-04-16T01:46:07.503Z,72.04
2023-04-16T01:47:07.535Z,71.75
2023-04-16T01:48:07.570Z,69.93
2023-04-16T01:49:07.811Z,72.24
2023-04-16T01:50:07.618Z,69.85
2023-04-16T01:51:07.748Z,72.60
2023-04-16T01:52:07.689Z,71.93
2023-04-16T01:53:07.734Z,71.06
2023-04-16T01:54:07.789Z,71.52
2023-04-16T01:55:07.789Z,70.52
2023-04-16T01:56:07.825Z,68.76
2023-04-16T01:57:07.829Z,70.84
2023-04-16T01:58:07.917Z,70.49
2023-04-16T01:59:08.235Z,70.21
2023-04-16T02:00:07.929Z,70.21
2023-04-16T02:01:08.055Z,72.07
2023-04-16T02:02:08.099Z,70.14
2023-04-16T02:03:08.208Z,71.79
2023-04-16T02:04:08.119Z,72.02
2023-04-16T02:05:08.092Z,70.46
2023-04-16T02:06:08.109Z,69.73
2023-04-16T02:07:08.211Z,70.96
2023-04-16T02:08:08.216Z,72.18
2023-04-16T02:09:08.672Z,71.66
2023-04-16T02:10:08.231Z,69.02
2023-04-16T02:11:08.304Z,70.46
2023-04-16T02:12:08.264Z,71.43
2023-04-16T02:13:08.355Z,69.37
2023-04-16T02:14:08.384Z,70.84
2023-04-16T02:15:08.432Z,72.26
2023-04-16T02:16:08.453Z,70.95
2023-04-16T02:17:08.451Z,69.64
2023-04-16T02:18:08.509Z,69.62
2023-04-16T02:19:08.892Z,69.86
2023-04-16T02:20:08.538Z,69.03
2023-04-16T02:21:08.641Z,68.74
2023-04-16T02:22:08.661Z,68.50
2023-04-16T02:23:08.639Z,68.93
2023-04-16T02:24:08.672Z,68.86
2023-04-16T02:25:08.822Z,70.07
2023-04-16T02:26:08.776Z,70.53
2023-04-16T02:27:08.777Z,71.56
2023-04-16T02:28:08.847Z,71.92
2023-04-16T02:29:09.038Z,71.12
2023-04-16T02:30:08.952Z,69.29
2023-04-16T02:31:08.959Z,71.30
2023-04-16T02:32:09.073Z,70.53
2023-04-16T02:33:09.039Z,70.18
2023-04-16T02:34:09.043Z,70.58
2023-04-16T02:35:09.100Z,69.96
2023-04-16T02:36:09.087Z,71.25
2023-04-16T02:37:09.217Z,70.03
2023-04-16T02:38:09.367Z,70.50
2023-04-16T02:39:09.558Z,69.83
2023-04-16T02:40:09.267Z,67.97
2023-04-16T02:41:09.296Z,72.98
2023-04-16T02:42:09.341Z,68.62
2023-04-16T02:43:09.402Z,69.41
2023-04-16T02:44:09.406Z,70.06
2023-04-16T02:45:09.458Z,70.59
2023-04-16T02:46:09.490Z,71.24
2023-04-16T02:47:09.485Z,68.07
2023-04-16T02:48:09.559Z,70.23
2023-04-16T02:49:09.873Z,70.84
2023-04-16T02:50:09.638Z,69.00
2023-04-16T02:51:09.608Z,68.45
2023-04-16T02:52:09.637Z,68.15
2023-04-16T02:53:09.669Z,70.08
2023-04-16T02:54:09.676Z,69.59
2023-04-16T02:55:09.724Z,69.40
2023-04-16T02:56:09.807Z,70.02
2023-04-16T02:57:09.776Z,71.23
2023-04-16T02:58:09.993Z,69.24
2023-04-16T02:59:10.044Z,70.83
2023-04-16T03:00:09.889Z,70.04
2023-04-16T03:01:09.947Z,70.84
2023-04-16T03:02:10.017Z,69.59
2023-04-16T03:03:10.002Z,68.46
2023-04-16T03:04:10.126Z,69.41
2023-04-16T03:05:10.136Z,70.61
2023-04-16T03:06:10.111Z,69.45
2023-04-16T03:07:10.194Z,70.92
2023-04-16T03:08:10.322Z,69.89
2023-04-16T03:09:10.461Z,71.93
2023-04-16T03:10:10.242Z,69.73
2023-04-16T03:11:10.244Z,68.95
2023-04-16T03:12:10.286Z,69.62
2023-04-16T03:13:10.387Z,69.68
2023-04-16T03:14:10.367Z,69.55
2023-04-16T03:15:10.948Z,69.36
2023-04-16T03:16:10.471Z,68.95
2023-04-16T03:17:10.451Z,69.12
2023-04-16T03:18:10.502Z,72.35
2023-04-16T03:19:10.671Z,69.45
2023-04-16T03:20:10.570Z,68.81
2023-04-16T03:21:10.581Z,70.92
2023-04-16T03:22:10.622Z,69.04
2023-04-16T03:23:10.804Z,68.78
2023-04-16T03:24:10.719Z,70.40
2023-04-16T03:25:10.761Z,70.07
2023-04-16T03:26:10.827Z,70.54
2023-04-16T03:27:10.846Z,67.82
2023-04-16T03:28:11.420Z,71.52
2023-04-16T03:29:11.133Z,70.23
2023-04-16T03:30:10.969Z,71.29
2023-04-16T03:31:11.019Z,70.07
2023-04-16T03:32:11.087Z,71.66
2023-04-16T03:33:11.035Z,67.16
2023-04-16T03:34:11.121Z,67.37
2023-04-16T03:35:11.252Z,68.22
2023-04-16T03:36:11.178Z,70.19
2023-04-16T03:37:11.249Z,68.89
2023-04-16T03:38:11.266Z,70.26
2023-04-16T03:39:11.520Z,70.05
2023-04-16T03:40:11.301Z,68.68
2023-04-16T03:41:11.386Z,67.79
2023-04-16T03:42:11.386Z,69.00
2023-04-16T03:43:11.623Z,68.78
2023-04-16T03:44:11.512Z,70.51
2023-04-16T03:45:11.616Z,69.77
2023-04-16T03:46:11.589Z,70.22
2023-04-16T03:47:11.580Z,68.26
2023-04-16T03:48:11.660Z,70.48
2023-04-16T03:49:12.090Z,67.15
2023-04-16T03:50:11.762Z,68.38
2023-04-16T03:51:11.748Z,68.82
2023-04-16T03:52:11.830Z,67.57
2023-04-16T03:53:11.868Z,65.78
2023-04-16T03:54:11.867Z,71.36
2023-04-16T03:55:11.912Z,69.90
2023-04-16T03:56:11.947Z,70.21
2023-04-16T03:57:12.017Z,69.20
2023-04-16T03:58:12.052Z,68.04
2023-04-16T03:59:12.032Z,69.92
2023-04-16T04:00:12.087Z,69.43
2023-04-16T04:01:12.091Z,65.67
2023-04-16T04:02:12.182Z,67.22
2023-04-16T04:03:12.332Z,66.55
2023-04-16T04:04:12.239Z,69.08
2023-04-16T04:05:12.285Z,68.23
2023-04-16T04:06:12.262Z,68.40
2023-04-16T04:07:12.276Z,68.35
2023-04-16T04:08:12.430Z,69.61
2023-04-16T04:09:12.382Z,68.06
2023-04-16T04:10:12.424Z,67.07
2023-04-16T04:11:12.414Z,68.56
2023-04-16T04:12:12.433Z,67.96
2023-04-16T04:13:12.552Z,70.65
2023-04-16T04:14:12.577Z,69.86
2023-04-16T04:15:12.666Z,69.90
2023-04-16T04:16:12.716Z,66.99
2023-04-16T04:17:12.710Z,69.20
2023-04-16T04:18:12.719Z,68.86
2023-04-16T04:19:12.792Z,68.58
2023-04-16T04:20:12.853Z,69.02
2023-04-16T04:21:12.840Z,69.68
2023-04-16T04:22:12.887Z,70.09
2023-04-16T04:23:13.040Z,68.45
2023-04-16T04:24:12.964Z,69.93
2023-04-16T04:25:13.019Z,68.88
2023-04-16T04:26:13.166Z,68.32
2023-04-16T04:27:13.106Z,68.76
2023-04-16T04:28:13.136Z,69.47
2023-04-16T04:29:13.182Z,68.42
2023-04-16T04:30:13.189Z,71.65
2023-04-16T04:31:13.296Z,69.15
2023-04-16T04:32:13.263Z,67.83
2023-04-16T04:33:13.980Z,66.36
2023-04-16T04:34:13.318Z,68.99
2023-04-16T04:35:13.439Z,68.79
2023-04-16T04:36:13.466Z,68.24
2023-04-16T04:37:13.507Z,69.60
2023-04-16T04:38:15.634Z,70.16
2023-04-16T04:39:13.558Z,69.33
2023-04-16T04:40:13.522Z,69.71
2023-04-16T04:41:13.551Z,69.47
2023-04-16T04:42:13.569Z,69.43
2023-04-16T04:43:13.567Z,68.27
2023-04-16T04:44:13.509Z,69.05
2023-04-16T04:45:13.536Z,70.05
2023-04-16T04:46:13.539Z,67.11
2023-04-16T04:47:13.461Z,66.71
2023-04-16T04:48:13.472Z,67.48
2023-04-16T04:49:13.529Z,68.23
2023-04-16T04:50:13.590Z,66.81
2023-04-16T04:51:13.500Z,67.32
2023-04-16T04:52:13.447Z,68.94
2023-04-16T04:53:13.456Z,70.89
2023-04-16T04:54:13.529Z,68.79
2023-04-16T04:55:13.462Z,69.40
2023-04-16T04:56:13.478Z,67.72
2023-04-16T04:57:13.378Z,68.62
2023-04-16T04:58:13.384Z,68.07
2023-04-16T04:59:13.382Z,68.44
2023-04-16T05:00:13.374Z,67.50
2023-04-16T05:01:13.491Z,68.18
2023-04-16T05:02:13.399Z,66.97
2023-04-16T05:03:13.493Z,65.69
2023-04-16T05:04:13.499Z,66.67
2023-04-16T05:05:13.548Z,66.11
2023-04-16T05:06:13.339Z,64.96
2023-04-16T05:07:13.342Z,66.67
2023-04-16T05:08:13.347Z,65.55
2023-04-16T05:09:13.353Z,66.94
2023-04-16T05:10:13.323Z,65.91
2023-04-16T05:11:13.353Z,65.23
2023-04-16T05:12:13.279Z,65.12
2023-04-16T05:13:13.277Z,68.46
2023-04-16T05:14:13.305Z,66.23
2023-04-16T05:15:13.302Z,66.50
2023-04-16T05:16:13.271Z,64.03
2023-04-16T05:17:13.412Z,69.35
2023-04-16T05:18:13.272Z,67.58
2023-04-16T05:19:13.381Z,66.42
2023-04-16T05:20:13.308Z,68.22
2023-04-16T05:21:13.254Z,66.67
2023-04-16T05:22:13.267Z,69.38
2023-04-16T05:23:13.247Z,67.45
2023-04-16T05:24:14.999Z,65.76
2023-04-16T05:25:13.222Z,67.64
2023-04-16T05:26:13.244Z,68.99
2023-04-16T05:27:13.204Z,68.07
2023-04-16T05:28:13.234Z,68.15
2023-04-16T05:29:13.287Z,64.90
2023-04-16T05:30:13.308Z,64.70
2023-04-16T05:31:13.427Z,66.63
2023-04-16T05:32:13.427Z,67.42
2023-04-16T05:33:13.470Z,68.72
2023-04-16T05:34:13.529Z,66.52
2023-04-16T05:35:15.261Z,65.05
2023-04-16T05:36:13.536Z,67.66
2023-04-16T05:37:13.556Z,65.88
2023-04-16T05:38:13.559Z,65.13
2023-04-16T05:39:13.512Z,66.55
2023-04-16T05:40:13.525Z,65.83
2023-04-16T05:41:13.488Z,67.50
2023-04-16T05:42:13.525Z,67.73
2023-04-16T05:43:13.587Z,67.83
2023-04-16T05:44:13.557Z,65.98
2023-04-16T05:45:13.498Z,65.34
2023-04-16T05:46:13.495Z,67.16
2023-04-16T05:47:13.432Z,66.82
2023-04-16T05:48:13.474Z,65.97
2023-04-16T05:49:13.537Z,65.42
2023-04-16T05:50:13.423Z,65.29
2023-04-16T05:51:13.437Z,67.76
2023-04-16T05:52:13.455Z,65.08
2023-04-16T05:53:13.449Z,66.08
2023-04-16T05:54:13.464Z,67.64
2023-04-16T05:55:13.415Z,65.12
2023-04-16T05:56:13.435Z,67.19
2023-04-16T05:57:13.431Z,63.98
2023-04-16T05:58:13.376Z,64.90
2023-04-16T05:59:13.395Z,67.34
2023-04-16T06:00:13.391Z,64.64
2023-04-16T06:01:13.470Z,64.38
2023-04-16T06:02:13.671Z,63.12
2023-04-16T06:03:13.494Z,67.57
2023-04-16T06:04:13.538Z,66.29
2023-04-16T06:05:13.365Z,64.37
2023-04-16T06:06:13.387Z,66.45
2023-04-16T06:07:13.293Z,66.12
2023-04-16T06:08:13.299Z,66.89
2023-04-16T06:09:13.302Z,67.63
2023-04-16T06:10:13.303Z,67.11
2023-04-16T06:11:13.366Z,66.52
2023-04-16T06:12:13.271Z,65.77
2023-04-16T06:13:13.333Z,63.05
2023-04-16T06:14:13.380Z,67.08
2023-04-16T06:15:13.493Z,65.79
2023-04-16T06:16:13.572Z,63.93
2023-04-16T06:17:13.507Z,66.84
2023-04-16T06:18:13.624Z,65.87
2023-04-16T06:19:13.591Z,63.48
2023-04-16T06:20:13.639Z,66.20
2023-04-16T06:21:13.694Z,64.11
2023-04-16T06:22:13.702Z,64.64
2023-04-16T06:23:13.763Z,66.17
2023-04-16T06:24:13.845Z,65.90
2023-04-16T06:25:14.803Z,65.30
2023-04-16T06:26:13.900Z,64.88
2023-04-16T06:27:13.989Z,66.71
2023-04-16T06:28:14.007Z,65.94
2023-04-16T06:29:14.063Z,63.63
2023-04-16T06:30:14.100Z,65.37
2023-04-16T06:31:14.128Z,63.10
2023-04-16T06:32:14.176Z,66.14
2023-04-16T06:33:14.202Z,65.97
2023-04-16T06:34:14.248Z,66.43
2023-04-16T06:35:14.236Z,63.96
2023-04-16T06:36:14.356Z,64.10
2023-04-16T06:37:14.535Z,63.91
2023-04-16T06:38:14.429Z,64.46
2023-04-16T06:39:14.603Z,64.97
2023-04-16T06:40:14.798Z,63.82
2023-04-16T06:41:14.700Z,65.68
2023-04-16T06:42:14.455Z,64.05
2023-04-16T06:43:14.473Z,64.10
2023-04-16T06:44:14.504Z,63.25
2023-04-16T06:45:14.638Z,64.25
2023-04-16T06:46:14.697Z,65.90
2023-04-16T06:47:14.705Z,64.84
2023-04-16T06:48:14.653Z,65.10
2023-04-16T06:49:14.676Z,65.52
2023-04-16T06:50:14.705Z,64.71
2023-04-16T06:51:14.764Z,63.24
2023-04-16T06:52:14.782Z,63.23
2023-04-16T06:53:14.795Z,63.07
2023-04-16T06:54:14.861Z,61.80
2023-04-16T06:55:15.081Z,63.95
2023-04-16T06:56:14.898Z,63.85
2023-04-16T06:57:14.973Z,63.87
2023-04-16T06:58:14.997Z,65.80
2023-04-16T06:59:15.020Z,65.22
2023-04-16T07:00:15.054Z,65.30
2023-04-16T07:01:15.097Z,63.26
2023-04-16T07:02:15.157Z,64.76
2023-04-16T07:03:15.273Z,63.55
2023-04-16T07:04:15.197Z,65.00
2023-04-16T07:05:15.198Z,63.17
2023-04-16T07:06:15.317Z,63.24
2023-04-16T07:07:15.304Z,64.12
2023-04-16T07:08:15.402Z,65.42
2023-04-16T07:09:15.363Z,64.40
2023-04-16T07:10:15.380Z,64.58
2023-04-16T07:11:15.437Z,62.71
2023-04-16T07:12:15.483Z,65.68
2023-04-16T07:13:15.531Z,63.86
2023-04-16T07:14:15.562Z,64.48
2023-04-16T07:15:15.574Z,62.43
2023-04-16T07:16:15.586Z,65.65
2023-04-16T07:17:15.654Z,62.97
2023-04-16T07:18:15.672Z,65.31
2023-04-16T07:19:15.767Z,62.62
2023-04-16T07:20:15.703Z,63.41
2023-04-16T07:21:15.804Z,65.19
2023-04-16T07:22:15.812Z,64.85
2023-04-16T07:23:15.872Z,62.42
2023-04-16T07:24:15.887Z,63.96
2023-04-16T07:25:15.912Z,63.26
2023-04-16T07:26:15.916Z,60.57
2023-04-16T07:27:16.038Z,63.88
2023-04-16T07:28:15.994Z,64.23
2023-04-16T07:29:16.046Z,61.39
2023-04-16T07:30:16.165Z,63.87
2023-04-16T07:31:16.106Z,64.53
2023-04-16T07:32:16.184Z,64.17
2023-04-16T07:33:16.136Z,63.50
2023-04-16T07:34:16.245Z,63.60
2023-04-16T07:35:16.229Z,63.87
2023-04-16T07:36:16.251Z,63.60
2023-04-16T07:37:16.324Z,63.56
2023-04-16T07:38:16.408Z,62.67
2023-04-16T07:39:16.337Z,62.90
2023-04-16T07:40:16.397Z,64.47
2023-04-16T07:41:16.444Z,64.38
2023-04-16T07:42:16.509Z,63.02
2023-04-16T07:43:16.501Z,63.96
2023-04-16T07:44:16.552Z,63.78
2023-04-16T07:45:16.481Z,64.64
2023-04-16T07:46:16.602Z,64.14
2023-04-16T07:47:16.574Z,61.99
2023-04-16T07:48:16.660Z,63.83
2023-04-16T07:49:16.664Z,63.08
2023-04-16T07:50:16.703Z,60.61
2023-04-16T07:51:16.733Z,62.47
2023-04-16T07:52:16.742Z,64.17
2023-04-16T07:53:16.817Z,64.64
2023-04-16T07:54:16.766Z,62.69
2023-04-16T07:55:16.836Z,63.72
2023-04-16T07:56:16.853Z,63.23
2023-04-16T07:57:16.911Z,62.39
2023-04-16T07:58:16.922Z,60.77
2023-04-16T07:59:22.594Z,61.37
2023-04-16T08:00:17.906Z,61.55
2023-04-16T08:01:16.913Z,61.96
2023-04-16T08:02:17.638Z,62.37
2023-04-16T08:03:17.054Z,62.49
2023-04-16T08:04:16.971Z,61.64
2023-04-16T08:05:16.959Z,63.56
2023-04-16T08:06:16.878Z,62.19
2023-04-16T08:07:16.843Z,62.10
2023-04-16T08:08:16.945Z,62.06
2023-04-16T08:09:16.858Z,60.34
2023-04-16T08:10:16.875Z,59.39
2023-04-16T08:11:16.868Z,61.76
2023-04-16T08:12:16.823Z,60.56
2023-04-16T08:13:16.814Z,62.50
2023-04-16T08:14:16.838Z,63.62
2023-04-16T08:15:16.814Z,62.53
2023-04-16T08:16:16.865Z,63.98
2023-04-16T08:17:16.816Z,64.25
2023-04-16T08:18:16.759Z,62.26
2023-04-16T08:19:16.842Z,66.12
2023-04-16T08:20:18.612Z,62.29
2023-04-16T08:21:16.834Z,63.89
2023-04-16T08:22:16.849Z,64.73
2023-04-16T08:23:16.894Z,61.79
2023-04-16T08:24:16.908Z,64.98
2023-04-16T08:25:16.904Z,61.92
2023-04-16T08:26:16.944Z,63.99
2023-04-16T08:27:19.927Z,63.63
2023-04-16T08:28:16.932Z,64.06
2023-04-16T08:29:16.899Z,62.77
2023-04-16T08:30:16.883Z,65.77
2023-04-16T08:31:17.018Z,65.18
2023-04-16T08:32:16.920Z,66.20
2023-04-16T08:33:16.908Z,66.66
2023-04-16T08:34:16.862Z,63.93
2023-04-16T08:35:16.874Z,67.84
2023-04-16T08:36:16.919Z,64.30
2023-04-16T08:37:16.889Z,62.70
2023-04-16T08:38:16.816Z,62.67
2023-04-16T08:39:16.835Z,63.08
2023-04-16T08:40:16.832Z,63.20
2023-04-16T08:41:16.858Z,59.89
2023-04-16T08:42:16.868Z,63.43
2023-04-16T08:43:16.825Z,63.78
2023-04-16T08:44:16.794Z,63.77
2023-04-16T08:45:16.815Z,63.25
2023-04-16T08:46:16.809Z,61.35
2023-04-16T08:47:16.768Z,62.71
2023-04-16T08:48:16.790Z,63.41
2023-04-16T08:49:16.930Z,60.72
2023-04-16T08:50:16.762Z,61.41
2023-04-16T08:51:16.747Z,60.76
2023-04-16T08:52:16.803Z,60.61
2023-04-16T08:53:16.710Z,62.47
2023-04-16T08:54:16.736Z,61.13
2023-04-16T08:55:16.753Z,60.01
2023-04-16T08:56:16.803Z,61.11
2023-04-16T08:57:16.688Z,61.40
2023-04-16T08:58:16.718Z,61.88
2023-04-16T08:59:16.818Z,59.28
2023-04-16T09:00:16.747Z,61.13
2023-04-16T09:01:16.664Z,61.62
2023-04-16T09:02:16.843Z,64.41
2023-04-16T09:03:17.213Z,62.65
2023-04-16T09:04:16.820Z,62.08
2023-04-16T09:05:16.629Z,61.36
2023-04-16T09:06:16.823Z,61.89
2023-04-16T09:07:16.708Z,61.24
2023-04-16T09:08:16.652Z,62.38
2023-04-16T09:09:16.630Z,62.30
2023-04-16T09:10:16.617Z,63.28
2023-04-16T09:11:16.602Z,62.77
2023-04-16T09:12:16.604Z,63.01
2023-04-16T09:13:16.662Z,64.19
2023-04-16T09:14:16.548Z,60.83
2023-04-16T09:15:16.613Z,63.37
2023-04-16T09:16:16.590Z,61.22
2023-04-16T09:17:16.538Z,64.14
2023-04-16T09:18:16.591Z,60.56
2023-04-16T09:19:16.558Z,62.21
2023-04-16T09:20:16.559Z,62.34
2023-04-16T09:21:16.532Z,62.37
2023-04-16T09:22:16.507Z,61.91
2023-04-16T09:23:16.505Z,61.99
2023-04-16T09:24:16.514Z,61.96
2023-04-16T09:25:16.516Z,62.75
2023-04-16T09:26:16.492Z,61.21
2023-04-16T09:27:16.556Z,61.21
2023-04-16T09:28:16.519Z,62.66
2023-04-16T09:29:16.445Z,63.49
2023-04-16T09:30:16.479Z,62.95
2023-04-16T09:31:16.512Z,63.87
2023-04-16T09:32:16.545Z,64.01
2023-04-16T09:33:16.522Z,62.93
2023-04-16T09:34:16.432Z,63.16
2023-04-16T09:35:16.460Z,62.53
2023-04-16T09:36:16.439Z,62.38
2023-04-16T09:37:16.406Z,62.79
2023-04-16T09:38:16.442Z,62.19
2023-04-16T09:39:16.417Z,62.19
2023-04-16T09:40:16.429Z,61.93
2023-04-16T09:41:16.415Z,61.76
2023-04-16T09:42:16.368Z,63.31
2023-04-16T09:43:16.484Z,61.92
2023-04-16T09:44:16.382Z,61.02
2023-04-16T09:45:16.354Z,63.11
2023-04-16T09:46:16.403Z,63.13
2023-04-16T09:47:16.387Z,61.92
2023-04-16T09:48:16.391Z,62.23
2023-04-16T09:49:16.352Z,62.42
2023-04-16T09:50:18.280Z,59.95
2023-04-16T09:51:16.331Z,60.53
2023-04-16T09:52:16.299Z,61.26
2023-04-16T09:53:16.283Z,61.40
2023-04-16T09:54:16.314Z,59.36
2023-04-16T09:55:16.295Z,61.05
2023-04-16T09:56:16.265Z,58.44
2023-04-16T09:57:16.267Z,59.74
2023-04-16T09:58:16.269Z,60.62
2023-04-16T09:59:16.386Z,59.31
2023-04-16T10:00:16.214Z,58.98
2023-04-16T10:01:16.311Z,58.79
2023-04-16T10:02:16.642Z,58.75
2023-04-16T10:03:16.356Z,59.01
2023-04-16T10:04:16.296Z,58.25
2023-04-16T10:05:16.200Z,59.32
2023-04-16T10:06:16.196Z,58.25
2023-04-16T10:07:16.224Z,57.89
2023-04-16T10:08:16.206Z,57.12
2023-04-16T10:09:16.288Z,57.41
2023-04-16T10:10:16.289Z,57.08
2023-04-16T10:11:16.298Z,58.85
2023-04-16T10:12:16.335Z,59.21
2023-04-16T10:13:16.410Z,59.05
2023-04-16T10:14:16.427Z,59.54
2023-04-16T10:15:16.465Z,59.09
2023-04-16T10:16:16.498Z,57.49
2023-04-16T10:17:16.550Z,59.45
2023-04-16T10:18:16.578Z,58.39
2023-04-16T10:19:16.709Z,59.24
2023-04-16T10:20:17.285Z,59.06
2023-04-16T10:21:16.688Z,59.22
2023-04-16T10:22:16.721Z,59.64
2023-04-16T10:23:16.750Z,61.64
2023-04-16T10:24:16.819Z,59.50
2023-04-16T10:25:16.843Z,59.54
2023-04-16T10:26:16.911Z,60.45
2023-04-16T10:27:16.984Z,60.57
2023-04-16T10:28:17.202Z,61.37
2023-04-16T10:29:17.069Z,60.49
2023-04-16T10:30:17.186Z,60.19
2023-04-16T10:31:17.655Z,62.54
2023-04-16T10:32:17.261Z,61.72
2023-04-16T10:33:17.237Z,61.33
2023-04-16T10:34:17.329Z,61.28
2023-04-16T10:35:17.362Z,62.13
2023-04-16T10:36:17.405Z,61.44
2023-04-16T10:37:17.428Z,63.45
2023-04-16T10:38:17.441Z,63.24
2023-04-16T10:39:17.692Z,62.89
2023-04-16T10:40:17.657Z,63.72
2023-04-16T10:41:17.589Z,64.23
2023-04-16T10:42:17.657Z,63.18
2023-04-16T10:43:17.681Z,62.95
2023-04-16T10:44:17.747Z,64.02
2023-04-16T10:45:17.799Z,63.95
2023-04-16T10:46:17.937Z,63.23
2023-04-16T10:47:17.921Z,64.15
2023-04-16T10:48:17.985Z,64.34
2023-04-16T10:49:18.036Z,63.04
2023-04-16T10:50:18.164Z,62.73
2023-04-16T10:51:18.156Z,64.69
2023-04-16T10:52:18.361Z,64.40
2023-04-16T10:53:18.248Z,64.65
2023-04-16T10:54:18.325Z,64.08
2023-04-16T10:55:18.384Z,65.43
2023-04-16T10:56:18.400Z,64.45
2023-04-16T10:57:18.488Z,64.98
2023-04-16T10:58:18.561Z,64.83
2023-04-16T10:59:18.607Z,63.56
2023-04-16T11:00:18.681Z,64.11
2023-04-16T11:01:18.857Z,64.47
2023-04-16T11:02:19.369Z,62.49
2023-04-16T11:03:19.145Z,65.60
2023-04-16T11:04:18.989Z,64.67
2023-04-16T11:05:19.009Z,63.68
2023-04-16T11:06:19.058Z,63.93
2023-04-16T11:07:19.230Z,64.39
2023-04-16T11:08:19.162Z,64.16
2023-04-16T11:09:19.208Z,63.85
2023-04-16T11:10:19.219Z,62.57
2023-04-16T11:11:19.378Z,62.49
2023-04-16T11:12:19.343Z,63.18
2023-04-16T11:13:19.437Z,62.87
2023-04-16T11:14:19.493Z,62.34
2023-04-16T11:15:19.529Z,63.55
2023-04-16T11:16:19.647Z,63.97
2023-04-16T11:17:19.650Z,63.81
2023-04-16T11:18:19.752Z,62.76
2023-04-16T11:19:19.870Z,64.02
2023-04-16T11:20:20.870Z,64.73
2023-04-16T11:21:19.873Z,62.98
2023-04-16T11:22:19.953Z,62.75
2023-04-16T11:23:20.009Z,63.11
2023-04-16T11:24:20.002Z,63.96
2023-04-16T11:25:20.098Z,63.22
2023-04-16T11:26:20.237Z,64.76
2023-04-16T11:27:20.224Z,63.75
2023-04-16T11:28:20.261Z,63.50
2023-04-16T11:29:20.346Z,61.90
2023-04-16T11:30:20.446Z,62.99
2023-04-16T11:31:20.497Z,62.80
2023-04-16T11:32:20.506Z,63.28
2023-04-16T11:33:20.534Z,63.59
2023-04-16T11:34:20.623Z,62.99
2023-04-16T11:35:20.666Z,63.24
2023-04-16T11:36:20.770Z,63.71
2023-04-16T11:37:20.761Z,61.78
2023-04-16T11:38:20.919Z,64.09
2023-04-16T11:39:20.939Z,62.26
2023-04-16T11:40:21.020Z,63.12
2023-04-16T11:41:20.999Z,64.48
2023-04-16T11:42:21.084Z,64.75
2023-04-16T11:43:21.142Z,63.21
2023-04-16T11:44:21.265Z,63.77
2023-04-16T11:45:21.256Z,64.32
2023-04-16T11:46:27.685Z,63.87
2023-04-16T11:47:22.376Z,64.07
2023-04-16T11:48:21.662Z,64.33
2023-04-16T11:49:21.304Z,64.29
2023-04-16T11:50:21.274Z,64.39
2023-04-16T11:51:21.304Z,65.43
2023-04-16T11:52:21.255Z,64.37
2023-04-16T11:53:21.322Z,66.28
2023-04-16T11:54:21.266Z,65.20
2023-04-16T11:55:21.378Z,66.41
2023-04-16T11:56:21.319Z,64.63
2023-04-16T11:57:21.387Z,64.07
2023-04-16T11:58:21.424Z,63.82
2023-04-16T11:59:21.499Z,62.96
2023-04-16T12:00:24.720Z,64.55
2023-04-16T12:01:21.645Z,66.22
2023-04-16T12:02:21.587Z,66.17
2023-04-16T12:03:21.659Z,64.64
2023-04-16T12:04:21.674Z,65.03
2023-04-16T12:05:21.546Z,65.40
2023-04-16T12:06:23.309Z,65.57
2023-04-16T12:07:21.503Z,65.71
2023-04-16T12:08:21.596Z,65.81
2023-04-16T12:09:21.541Z,66.07
2023-04-16T12:10:21.536Z,66.03
2023-04-16T12:11:21.534Z,65.87
2023-04-16T12:12:21.497Z,63.62
2023-04-16T12:13:21.483Z,64.82
2023-04-16T12:14:21.484Z,65.12
2023-04-16T12:15:21.493Z,64.11
2023-04-16T12:16:21.584Z,63.68
2023-04-16T12:17:21.494Z,62.84
2023-04-16T12:18:21.433Z,63.47
2023-04-16T12:19:21.447Z,63.13
2023-04-16T12:20:21.408Z,65.25
2023-04-16T12:21:21.553Z,61.96
2023-04-16T12:22:21.413Z,62.88
2023-04-16T12:23:21.408Z,62.20
2023-04-16T12:24:21.372Z,61.90
2023-04-16T12:25:21.429Z,63.59
2023-04-16T12:26:21.365Z,62.30
2023-04-16T12:27:21.370Z,63.16
2023-04-16T12:28:21.365Z,63.72
2023-04-16T12:29:21.381Z,64.99
2023-04-16T12:30:21.372Z,63.23
2023-04-16T12:31:21.388Z,64.38
2023-04-16T12:32:21.399Z,63.03
2023-04-16T12:33:21.322Z,63.20
2023-04-16T12:34:21.304Z,62.49
2023-04-16T12:35:21.331Z,63.43
2023-04-16T12:36:21.315Z,62.49
2023-04-16T12:37:21.425Z,62.61
2023-04-16T12:38:22.823Z,64.83
2023-04-16T12:39:21.319Z,64.83
2023-04-16T12:40:21.259Z,64.20
2023-04-16T12:41:21.554Z,63.29
2023-04-16T12:42:21.316Z,64.57
2023-04-16T12:43:21.276Z,63.91
2023-04-16T12:44:21.215Z,63.80
2023-04-16T12:45:21.286Z,61.70
2023-04-16T12:46:21.295Z,62.43
2023-04-16T12:47:21.238Z,62.59
2023-04-16T12:48:21.296Z,63.17
2023-04-16T12:49:21.226Z,61.99
2023-04-16T12:50:21.236Z,64.03
2023-04-16T12:51:21.196Z,62.99
2023-04-16T12:52:23.302Z,62.69